Time;durP1;ratioP1;P1;durP2;ratioP2;P2;SDS_P1;SDS_P2;PMS_P1;PMS_P2;Temp;Humidity;BMP_temperature;BMP_pressure;BME280_temperature;BME280_humidity;BME280_pressure;Samples;Min_cycle;Max_cycle;Signal;HPM_P1;HPM_P2
2021/11/26 00:00:53;;;;;;;;;6.00;3.75;;;;;10.10;60.64;100718.00;5020612;28;45383;-64
2021/11/26 00:03:19;;;;;;;;;4.75;4.75;;;;;10.11;60.73;100725.09;5007696;28;45271;-64
2021/11/26 00:05:44;;;;;;;;;4.00;4.00;;;;;10.08;60.70;100720.72;5020502;28;45497;-64
2021/11/26 00:08:09;;;;;;;;;3.75;3.75;;;;;10.05;60.81;100720.78;5020482;28;45342;-64
2021/11/26 00:10:35;;;;;;;;;7.00;5.00;;;;;10.06;60.26;100719.88;5020194;28;45291;-64
2021/11/26 00:13:03;;;;;;;;;7.25;4.00;;;;;10.06;60.62;100711.88;5019735;28;45457;-64
2021/11/26 00:17:57;;;;;;;;;3.75;3.75;;;;;10.02;60.58;100713.78;5020182;28;45285;-64
2021/11/26 00:20:22;;;;;;;;;8.75;4.00;;;;;9.95;60.17;100698.00;5019963;28;45511;-64
2021/11/26 00:22:48;;;;;;;;;5.50;4.75;;;;;9.96;60.78;100703.28;5019890;28;45524;-64
2021/11/26 00:25:14;;;;;;;;;6.50;5.25;;;;;9.98;60.49;100709.44;5019960;28;45378;-64
2021/11/26 00:27:40;;;;;;;;;5.25;5.00;;;;;9.98;60.35;100709.44;5020203;28;46106;-64
2021/11/26 00:30:06;;;;;;;;;5.25;5.25;;;;;9.98;60.59;100709.44;5019958;28;45322;-64
2021/11/26 00:32:32;;;;;;;;;6.00;5.00;;;;;9.98;60.49;100709.44;5020344;28;45319;-64
2021/11/26 00:34:57;;;;;;;;;7.50;4.75;;;;;10.00;60.27;100720.06;5020027;28;45402;-64
2021/11/26 00:37:23;;;;;;;;;5.00;5.00;;;;;10.00;60.22;100709.41;5020074;28;45264;-64
2021/11/26 00:39:49;;;;;;;;;9.00;6.25;;;;;9.95;60.30;100704.19;5019537;28;45406;-64
2021/11/26 00:42:15;;;;;;;;;5.50;5.00;;;;;9.97;60.61;100699.72;5019720;28;45412;-64
2021/11/26 00:44:40;;;;;;;;;7.50;6.75;;;;;9.85;60.65;100677.88;5019603;28;45465;-64
2021/11/26 00:47:06;;;;;;;;;9.50;5.50;;;;;9.84;60.15;100695.69;5019134;28;46170;-64
2021/11/26 00:49:31;;;;;;;;;5.00;5.00;;;;;9.85;60.65;100691.22;5019859;28;45313;-64
2021/11/26 00:51:57;;;;;;;;;8.25;7.25;;;;;9.85;60.58;100680.53;5019798;28;45354;-64
2021/11/26 00:54:22;;;;;;;;;9.25;5.00;;;;;9.83;60.76;100688.59;5019695;28;45525;-64
2021/11/26 00:56:47;;;;;;;;;9.00;5.00;;;;;9.81;60.50;100683.28;5019650;28;45600;-64
2021/11/26 00:59:13;;;;;;;;;9.75;8.75;;;;;9.78;60.66;100687.84;5035266;28;45205;-64
2021/11/26 01:01:38;;;;;;;;;6.00;5.00;;;;;9.78;60.57;100679.84;5019956;28;45294;-64
2021/11/26 01:04:04;;;;;;;;;5.75;5.75;;;;;9.77;60.34;100686.09;5019797;28;45689;-64
2021/11/26 01:06:31;;;;;;;;;6.25;4.75;;;;;9.75;60.36;100683.47;5019633;28;45200;-64
2021/11/26 01:08:57;;;;;;;;;10.75;4.75;;;;;9.75;60.33;100678.13;5019339;28;45322;-64
2021/11/26 01:11:23;;;;;;;;;5.00;5.00;;;;;9.76;60.35;100679.03;5019579;28;45369;-64
2021/11/26 01:13:48;;;;;;;;;7.00;7.00;;;;;9.79;60.35;100676.28;5018998;28;45341;-64
2021/11/26 01:16:14;;;;;;;;;5.00;5.00;;;;;9.71;59.96;100660.50;5019601;28;45366;-64
2021/11/26 01:18:39;;;;;;;;;5.00;4.00;;;;;9.76;60.03;100676.38;5019396;28;45384;-64
2021/11/26 01:21:06;;;;;;;;;8.25;4.50;;;;;9.71;60.29;100668.50;5019444;28;45370;-64
2021/11/26 01:23:32;;;;;;;;;6.75;6.75;;;;;9.74;59.98;100671.09;5019314;28;45235;-64
2021/11/26 01:25:57;;;;;;;;;5.25;4.25;;;;;9.75;60.18;100669.28;5019441;28;45971;-64
2021/11/26 01:28:23;;;;;;;;;5.00;5.00;;;;;9.72;59.97;100662.25;5019402;28;45329;-64
2021/11/26 01:30:49;;;;;;;;;7.50;4.50;;;;;9.75;59.94;100663.94;5019618;28;45211;-64
2021/11/26 01:33:17;;;;;;;;;6.75;5.00;;;;;9.75;60.16;100670.13;5019334;28;45490;-64
2021/11/26 01:35:44;;;;;;;;;6.25;4.75;;;;;9.72;60.20;100650.72;5019495;28;45342;-64
2021/11/26 01:38:10;;;;;;;;;7.00;4.50;;;;;9.76;60.28;100655.91;5018945;28;45808;-64
2021/11/26 01:40:38;;;;;;;;;9.50;6.75;;;;;9.75;59.89;100656.81;5019229;28;45365;-64
2021/11/26 01:43:07;;;;;;;;;6.25;5.00;;;;;9.76;59.89;100652.38;5018433;28;45301;-64
2021/11/26 01:45:43;;;;;;;;;4.50;4.00;;;;;9.71;59.80;100643.66;5019327;28;46368;-64
2021/11/26 01:48:09;;;;;;;;;8.25;5.00;;;;;9.73;60.09;100645.34;5019082;28;45330;-64
2021/11/26 01:50:34;;;;;;;;;9.00;7.50;;;;;9.71;59.82;100641.84;5019024;28;45252;-64
2021/11/26 01:53:00;;;;;;;;;7.00;4.50;;;;;9.72;59.79;100638.28;5018639;28;45510;-64
2021/11/26 01:55:25;;;;;;;;;5.50;5.50;;;;;9.79;59.72;100646.97;5019138;28;46197;-64
2021/11/26 01:57:50;;;;;;;;;8.25;6.50;;;;;9.79;60.08;100647.81;5019100;28;45415;-64
2021/11/26 02:00:24;;;;;;;;;6.00;6.00;;;;;9.79;59.75;100630.97;5022813;28;45181;-64
2021/11/26 02:02:49;;;;;;;;;3.75;3.75;;;;;9.81;59.65;100621.13;5022388;28;45299;-64
2021/11/26 02:05:15;;;;;;;;;4.75;3.00;;;;;9.82;59.76;100622.84;5037712;28;46984;-64
2021/11/26 02:07:40;;;;;;;;;5.00;5.00;;;;;9.81;59.96;100621.13;5022363;28;45266;-64
2021/11/26 02:10:06;;;;;;;;;7.75;4.75;;;;;9.73;59.42;100609.81;5022204;28;45378;-64
2021/11/26 02:12:31;;;;;;;;;6.00;5.00;;;;;9.68;59.73;100606.41;5019989;28;45675;-64
2021/11/26 02:14:58;;;;;;;;;6.25;4.00;;;;;9.70;59.86;100608.09;5020809;28;45697;-64
2021/11/26 02:17:24;;;;;;;;;6.25;4.00;;;;;9.71;59.95;100601.00;5022262;28;45177;-64
2021/11/26 02:19:51;;;;;;;;;4.75;4.00;;;;;9.70;59.50;100597.44;5022337;28;45553;-64
2021/11/26 02:22:17;;;;;;;;;3.00;3.00;;;;;9.71;59.83;100593.00;5019150;28;45372;-64
2021/11/26 02:24:42;;;;;;;;;5.25;4.00;;;;;9.71;59.81;100587.66;5021925;28;46278;-64
2021/11/26 02:27:08;;;;;;;;;6.50;5.00;;;;;9.72;59.64;100586.72;5021947;28;45362;-64
2021/11/26 02:29:34;;;;;;;;;3.25;3.00;;;;;9.73;59.38;100583.16;5022379;28;45355;-64
2021/11/26 02:31:59;;;;;;;;;5.00;4.50;;;;;9.70;59.67;100567.25;5021993;28;45426;-64
2021/11/26 02:34:24;;;;;;;;;4.00;4.00;;;;;9.66;59.85;100563.81;5022000;28;45310;-64
2021/11/26 02:36:50;;;;;;;;;4.00;3.75;;;;;9.74;59.71;100568.88;5022045;28;45303;-64
2021/11/26 02:39:15;;;;;;;;;5.00;4.00;;;;;9.72;59.41;100574.31;5021839;28;45388;-64
2021/11/26 02:41:43;;;;;;;;;6.00;5.00;;;;;9.70;59.34;100568.13;5021449;28;45561;-64
2021/11/26 02:44:09;;;;;;;;;6.75;4.50;;;;;9.69;59.55;100576.16;5021351;28;46952;-64
2021/11/26 02:46:35;;;;;;;;;3.50;3.50;;;;;9.69;59.78;100573.50;5021667;28;45323;-64
2021/11/26 02:49:01;;;;;;;;;4.25;4.25;;;;;9.66;59.52;100563.81;5021633;28;45209;-64
2021/11/26 02:51:27;;;;;;;;;4.50;4.00;;;;;9.62;59.71;100555.06;5021625;28;45489;-64
2021/11/26 02:53:53;;;;;;;;;8.25;5.00;;;;;9.61;59.91;100553.31;5021488;28;45310;-64
2021/11/26 02:56:18;;;;;;;;;8.00;4.75;;;;;9.60;59.49;100551.53;5021652;28;45275;-64
2021/11/26 02:58:43;;;;;;;;;4.25;4.25;;;;;9.66;59.91;100555.81;5021802;28;45533;-64
2021/11/26 03:01:09;;;;;;;;;5.00;4.00;;;;;9.67;59.42;100541.56;5021644;28;45438;-64
2021/11/26 03:03:36;;;;;;;;;9.50;7.00;;;;;9.67;59.84;100538.03;5021618;28;45427;-64
2021/11/26 03:06:04;;;;;;;;;6.50;5.00;;;;;9.67;60.05;100536.22;5021426;28;45319;-64
2021/11/26 03:08:30;;;;;;;;;4.25;4.00;;;;;9.64;60.17;100529.22;5021552;28;45279;-64
2021/11/26 03:11:00;;;;;;;;;7.25;5.75;;;;;9.66;59.58;100526.50;5020300;28;45465;-64
2021/11/26 03:13:26;;;;;;;;;7.75;5.75;;;;;9.67;60.02;100530.03;5019628;28;45485;-64
2021/11/26 03:15:52;;;;;;;;;7.25;5.00;;;;;9.64;59.89;100523.88;5021128;28;45268;-64
2021/11/26 03:18:19;;;;;;;;;6.25;5.00;;;;;9.65;60.06;100516.75;5021413;28;45432;-64
2021/11/26 03:20:47;;;;;;;;;8.50;5.00;;;;;9.64;59.72;100517.69;5020946;28;45177;-64
2021/11/26 03:23:13;;;;;;;;;9.00;4.00;;;;;9.62;60.14;100515.09;5021080;28;45268;-64
2021/11/26 03:25:41;;;;;;;;;4.25;4.25;;;;;9.57;59.98;100511.69;5020973;28;45830;-64
2021/11/26 03:28:10;;;;;;;;;5.50;4.50;;;;;9.60;60.14;100516.03;5021379;28;45338;-64
2021/11/26 03:30:35;;;;;;;;;5.75;4.75;;;;;9.60;60.41;100514.22;5021114;28;45482;-64
2021/11/26 03:33:01;;;;;;;;;7.75;5.00;;;;;9.61;59.69;100500.00;5021148;28;46101;-64
2021/11/26 03:35:27;;;;;;;;;6.00;4.25;;;;;9.51;59.63;100487.91;5020988;28;45435;-64
2021/11/26 03:37:53;;;;;;;;;4.00;4.00;;;;;9.59;60.33;100496.53;5021005;28;45304;-64
2021/11/26 03:40:21;;;;;;;;;7.50;5.00;;;;;9.59;60.21;100490.31;5020358;28;45332;-64
2021/11/26 03:42:47;;;;;;;;;3.75;3.75;;;;;9.52;59.95;100476.34;5020462;28;45995;-64
2021/11/26 03:45:13;;;;;;;;;5.00;4.00;;;;;9.58;60.21;100477.91;5020910;28;45658;-64
2021/11/26 03:47:39;;;;;;;;;7.50;5.00;;;;;9.57;60.18;100477.06;5021123;28;45264;-64
2021/11/26 03:50:06;;;;;;;;;6.50;6.50;;;;;9.56;60.06;100467.31;5020368;28;45399;-64
2021/11/26 03:52:32;;;;;;;;;4.50;4.25;;;;;9.55;60.01;100451.34;5020688;28;47640;-64
2021/11/26 03:54:57;;;;;;;;;6.25;5.00;;;;;9.57;60.33;100458.41;5020456;28;45801;-64
2021/11/26 03:57:23;;;;;;;;;9.00;4.00;;;;;9.56;60.07;100455.78;5020817;28;45270;-64
2021/11/26 03:59:48;;;;;;;;;7.75;5.25;;;;;9.58;59.96;100459.25;5020616;28;45418;-64
2021/11/26 04:02:14;;;;;;;;;4.75;4.00;;;;;9.58;60.06;100461.94;5020607;28;46310;-64
2021/11/26 04:04:39;;;;;;;;;9.00;5.00;;;;;9.49;59.95;100439.13;5020654;28;45301;-64
2021/11/26 04:07:06;;;;;;;;;8.00;6.75;;;;;9.53;60.14;100447.88;5020762;28;45362;-64
2021/11/26 04:09:32;;;;;;;;;5.75;5.75;;;;;9.49;59.85;100444.44;5019966;28;45338;-64
2021/11/26 04:11:57;;;;;;;;;7.00;4.75;;;;;9.50;60.14;100442.66;5020157;28;45375;-64
2021/11/26 04:14:23;;;;;;;;;9.00;7.00;;;;;9.44;59.77;100430.41;5020011;28;45433;-64
2021/11/26 04:16:48;;;;;;;;;4.75;4.75;;;;;9.42;60.08;100425.13;5020661;28;45285;-64
2021/11/26 04:19:15;;;;;;;;;8.00;6.50;;;;;9.43;60.01;100432.19;5020155;28;45233;-64
2021/11/26 04:21:40;;;;;;;;;9.50;8.00;;;;;9.45;59.75;100429.47;5019160;28;45429;-64
2021/11/26 04:24:05;;;;;;;;;8.25;6.50;;;;;9.44;60.14;100423.28;5019904;28;45470;-64
2021/11/26 04:26:31;;;;;;;;;8.75;7.00;;;;;9.43;59.88;100424.19;5020692;28;45537;-64
2021/11/26 04:28:59;;;;;;;;;6.25;6.25;;;;;9.42;60.33;100426.91;5020111;28;45323;-64
2021/11/26 04:31:24;;;;;;;;;9.75;6.75;;;;;9.41;60.13;100426.03;5020189;28;46163;-64
2021/11/26 04:33:49;;;;;;;;;9.75;8.00;;;;;9.38;60.45;100417.28;5020061;28;45391;-64
2021/11/26 04:36:15;;;;;;;;;8.50;8.50;;;;;9.40;60.38;100420.75;5020407;28;45245;-64
2021/11/26 04:38:40;;;;;;;;;11.75;9.00;;;;;9.41;60.23;100423.38;5019502;28;45482;-64
2021/11/26 04:41:06;;;;;;;;;15.00;12.75;;;;;9.40;60.32;100408.31;5019836;28;46269;-64
2021/11/26 04:43:31;;;;;;;;;9.50;8.00;;;;;9.42;59.72;100402.94;5019051;28;45392;-64
2021/11/26 04:45:57;;;;;;;;;13.25;11.00;;;;;9.42;59.99;100393.16;5019813;28;45311;-64
2021/11/26 04:48:24;;;;;;;;;16.25;9.75;;;;;9.41;60.09;100391.41;5019358;28;45240;-64
2021/11/26 04:50:50;;;;;;;;;9.25;8.50;;;;;9.39;60.02;100381.75;5010053;28;47114;-64
2021/11/26 04:53:16;;;;;;;;;11.75;10.00;;;;;9.42;60.06;100393.16;5019358;28;45225;-64
2021/11/26 04:55:41;;;;;;;;;10.75;10.00;;;;;9.39;60.03;100395.91;5018747;28;45445;-64
2021/11/26 04:58:07;;;;;;;;;8.00;8.00;;;;;9.43;60.11;100394.03;5019674;28;45749;-64
2021/11/26 05:00:33;;;;;;;;;11.00;8.50;;;;;9.44;60.25;100385.13;5019662;28;45966;-64
2021/11/26 05:02:58;;;;;;;;;14.75;13.25;;;;;9.42;60.22;100386.94;5019589;28;45318;-64
2021/11/26 05:05:24;;;;;;;;;11.25;10.50;;;;;9.37;59.76;100375.56;5020011;28;45303;-64
2021/11/26 05:07:49;;;;;;;;;9.00;9.00;;;;;9.41;60.16;100387.88;5019435;28;45278;-64
2021/11/26 05:10:17;;;;;;;;;16.00;12.25;;;;;9.40;60.28;100387.00;5019359;28;45355;-64
2021/11/26 05:12:49;;;;;;;;;10.50;10.00;;;;;9.35;60.20;100372.09;5019300;28;45703;-64
2021/11/26 05:15:15;;;;;;;;;15.00;10.50;;;;;9.36;60.34;100361.38;5019731;28;45271;-64
2021/11/26 05:17:41;;;;;;;;;16.00;10.50;;;;;9.36;60.06;100363.19;5019109;28;45318;-64
2021/11/26 05:20:07;;;;;;;;;12.25;10.50;;;;;9.35;60.32;100364.97;5019150;28;46167;-64
2021/11/26 05:22:33;;;;;;;;;10.00;9.75;;;;;9.34;60.13;100359.69;5019058;28;45603;-64
2021/11/26 05:24:58;;;;;;;;;11.25;9.25;;;;;9.30;60.21;100355.41;5018967;28;45385;-64
2021/11/26 05:27:24;;;;;;;;;11.75;11.00;;;;;9.32;60.00;100359.75;5019188;28;45306;-64
2021/11/26 05:29:49;;;;;;;;;9.50;9.50;;;;;9.27;59.97;100343.94;5019112;28;45244;-64
2021/11/26 05:32:14;;;;;;;;;11.25;9.50;;;;;9.30;60.11;100340.28;5019102;28;45383;-64
2021/11/26 05:34:39;;;;;;;;;11.00;10.50;;;;;9.28;60.04;100327.00;5022138;28;45320;-64
2021/11/26 05:37:05;;;;;;;;;9.75;9.50;;;;;9.28;59.90;100329.66;5022554;28;45300;-64
2021/11/26 05:39:31;;;;;;;;;17.00;13.75;;;;;9.26;60.49;100325.34;5022099;28;45165;-64
2021/11/26 05:41:56;;;;;;;;;17.50;16.00;;;;;9.25;59.80;100308.50;5022607;28;45370;-64
2021/11/26 05:44:22;;;;;;;;;12.75;12.75;;;;;9.25;60.37;100307.59;5022576;28;45319;-64
2021/11/26 05:46:47;;;;;;;;;10.25;9.50;;;;;9.24;60.39;100300.56;5022145;28;45736;-64
2021/11/26 05:49:12;;;;;;;;;15.50;12.25;;;;;9.27;60.11;100305.75;5022065;28;45364;-64
2021/11/26 05:51:38;;;;;;;;;12.25;12.25;;;;;9.26;59.78;100302.22;5022561;28;45306;-64
2021/11/26 05:54:04;;;;;;;;;16.00;13.00;;;;;9.24;60.42;100300.56;5022610;28;45796;-64
2021/11/26 05:56:29;;;;;;;;;17.75;15.25;;;;;9.22;60.20;100287.28;5022476;28;45410;-64
2021/11/26 05:58:55;;;;;;;;;13.00;12.25;;;;;9.21;60.23;100285.53;5022253;28;46219;-64
2021/11/26 06:01:20;;;;;;;;;19.00;16.00;;;;;9.18;60.12;100276.78;5022498;28;45429;-64
2021/11/26 06:03:46;;;;;;;;;13.50;11.50;;;;;9.17;60.51;100275.91;5022683;28;45379;-64
2021/11/26 06:06:11;;;;;;;;;17.25;14.50;;;;;9.21;60.29;100277.53;5022322;28;45487;-64
2021/11/26 06:08:36;;;;;;;;;17.25;16.25;;;;;9.21;60.07;100276.69;5021765;28;46103;-64
2021/11/26 06:11:02;;;;;;;;;13.75;13.75;;;;;9.21;60.01;100279.34;5022193;28;45288;-64
2021/11/26 06:13:27;;;;;;;;;10.50;10.00;;;;;9.11;60.04;100249.50;5022049;28;45525;-64
2021/11/26 06:15:53;;;;;;;;;9.00;9.00;;;;;9.19;60.14;100251.91;5021561;28;45398;-64
2021/11/26 06:18:18;;;;;;;;;14.00;12.25;;;;;9.20;60.01;100265.13;5022052;28;46292;-64
2021/11/26 06:20:43;;;;;;;;;12.00;10.75;;;;;9.14;60.04;100249.41;5022034;28;45550;-64
2021/11/26 06:23:09;;;;;;;;;10.25;9.75;;;;;9.17;59.76;100259.94;5022131;28;45390;-64
2021/11/26 06:25:35;;;;;;;;;13.75;9.75;;;;;9.20;60.12;100256.28;5022068;28;45339;-64
2021/11/26 06:28:00;;;;;;;;;10.25;9.00;;;;;9.19;60.33;100250.09;5022046;28;45244;-64
2021/11/26 06:30:26;;;;;;;;;17.00;13.00;;;;;9.15;60.10;100234.28;5018521;28;45216;-64
2021/11/26 06:32:53;;;;;;;;;15.25;12.75;;;;;9.19;60.15;100243.91;5012215;28;45361;-64
2021/11/26 06:35:20;;;;;;;;;14.50;9.25;;;;;9.16;60.18;100228.03;5021932;28;45622;-64
2021/11/26 06:37:50;;;;;;;;;10.00;8.50;;;;;9.17;60.06;100229.75;5021584;28;47065;-64
2021/11/26 06:40:16;;;;;;;;;9.25;9.00;;;;;9.16;60.00;100234.22;5021243;28;45325;-64
2021/11/26 06:42:41;;;;;;;;;11.25;9.50;;;;;9.14;59.80;100230.75;5021706;28;45462;-64
2021/11/26 06:45:08;;;;;;;;;12.25;9.25;;;;;9.13;59.95;100226.34;5020587;28;45387;-64
2021/11/26 06:47:34;;;;;;;;;11.75;10.00;;;;;9.05;59.86;100210.66;5021717;28;47510;-64
2021/11/26 06:49:59;;;;;;;;;17.00;13.00;;;;;9.10;60.29;100213.13;5020909;28;45465;-64
2021/11/26 06:52:25;;;;;;;;;13.50;11.25;;;;;9.10;59.92;100202.47;5021208;28;45317;-64
2021/11/26 06:54:50;;;;;;;;;13.75;13.50;;;;;9.05;60.04;100202.66;5021456;28;45552;-64
2021/11/26 06:57:16;;;;;;;;;17.75;15.50;;;;;9.07;60.19;100197.25;5021036;28;47368;-64
2021/11/26 06:59:42;;;;;;;;;17.50;16.00;;;;;9.07;60.17;100191.94;5021537;28;45295;-64
2021/11/26 07:02:08;;;;;;;;;18.75;17.00;;;;;9.07;60.00;100194.59;5021502;28;45864;-64
2021/11/26 07:04:34;;;;;;;;;20.00;15.00;;;;;9.05;60.31;100191.13;5020547;28;45523;-64
2021/11/26 07:07:00;;;;;;;;;16.50;15.50;;;;;9.05;60.39;100188.47;5033255;28;46986;-64
2021/11/26 07:09:26;;;;;;;;;18.00;16.75;;;;;9.04;60.33;100186.75;5020718;28;45715;-64
2021/11/26 07:11:52;;;;;;;;;11.25;10.50;;;;;9.04;60.13;100179.59;5021384;28;45473;-64
2021/11/26 07:14:17;;;;;;;;;18.50;13.50;;;;;9.05;60.42;100170.72;5020396;28;45382;-64
2021/11/26 07:16:42;;;;;;;;;14.50;13.75;;;;;9.05;60.13;100168.06;5016246;28;45397;-64
2021/11/26 07:19:08;;;;;;;;;13.75;11.50;;;;;9.02;60.04;100161.94;5019056;28;45366;-64
2021/11/26 07:21:33;;;;;;;;;10.00;9.00;;;;;9.01;59.94;100161.06;5020904;28;45373;-64
2021/11/26 07:23:59;;;;;;;;;9.50;8.00;;;;;8.96;59.95;100146.19;5019175;28;45308;-68
2021/11/26 07:26:24;;;;;;;;;10.00;8.00;;;;;8.94;60.17;100127.63;5018777;28;46957;-69
2021/11/26 07:28:50;;;;;;;;;8.75;8.75;;;;;9.06;59.88;100140.47;5019338;28;45610;-70
2021/11/26 07:31:16;;;;;;;;;9.00;7.75;;;;;8.97;59.81;100118.63;5020741;28;45397;-69
2021/11/26 07:33:41;;;;;;;;;11.25;10.25;;;;;9.10;59.87;100130.59;5020649;28;45326;-69
2021/11/26 07:36:07;;;;;;;;;10.75;10.75;;;;;9.10;59.77;100119.94;5019765;28;45995;-70
2021/11/26 07:38:34;;;;;;;;;9.75;8.25;;;;;9.15;59.82;100125.97;5019328;28;45323;-70
2021/11/26 07:40:59;;;;;;;;;8.00;8.00;;;;;9.16;59.79;100125.06;5016383;28;45517;-70
2021/11/26 07:43:25;;;;;;;;;15.25;10.25;;;;;9.14;59.66;100123.34;5019916;28;45296;-70
2021/11/26 07:45:51;;;;;;;;;8.25;8.00;;;;;9.14;59.52;100120.69;5020485;28;46141;-70
2021/11/26 07:48:17;;;;;;;;;10.00;8.50;;;;;9.15;59.51;100117.13;5020523;28;45525;-70
2021/11/26 07:50:42;;;;;;;;;9.50;9.50;;;;;9.15;60.13;100115.31;5036086;28;45360;-70
2021/11/26 07:53:08;;;;;;;;;12.50;12.50;;;;;9.16;59.70;100116.19;5038605;28;45563;-70
2021/11/26 07:55:33;;;;;;;;;8.50;8.50;;;;;9.13;59.46;100110.97;5020529;28;45374;-70
2021/11/26 07:57:58;;;;;;;;;11.75;11.75;;;;;9.14;59.76;100115.38;5016702;28;45651;-69
2021/11/26 08:00:24;;;;;;;;;10.75;10.75;;;;;9.13;59.54;100108.31;5014830;28;45477;-69
2021/11/26 08:02:49;;;;;;;;;13.00;11.75;;;;;9.17;59.73;100117.91;5019547;28;45270;-69
2021/11/26 08:05:15;;;;;;;;;10.50;10.50;;;;;9.19;59.48;100114.28;5018954;28;46092;-69
2021/11/26 08:07:41;;;;;;;;;11.75;10.00;;;;;9.19;59.31;100105.44;5015381;28;45697;-64
2021/11/26 08:10:09;;;;;;;;;13.50;10.75;;;;;9.15;59.16;100091.34;5022051;28;46331;-65
2021/11/26 08:12:36;;;;;;;;;11.00;11.00;;;;;9.15;59.37;100091.34;5014662;28;45382;-65
2021/11/26 08:15:04;;;;;;;;;10.00;9.50;;;;;9.12;59.46;100072.84;5017331;28;45546;-65
2021/11/26 08:17:29;;;;;;;;;9.00;9.00;;;;;9.11;59.66;100073.75;5017761;28;45750;-65
2021/11/26 08:19:55;;;;;;;;;16.00;8.00;;;;;9.08;59.26;100073.88;5021076;28;45551;-65
2021/11/26 08:22:20;;;;;;;;;13.75;13.50;;;;;9.03;59.71;100067.84;5018247;28;46377;-64
2021/11/26 08:24:45;;;;;;;;;12.50;9.00;;;;;8.95;59.71;100068.13;5008553;28;46134;-65
2021/11/26 08:27:11;;;;;;;;;13.00;8.25;;;;;8.97;59.28;100076.03;5017545;28;45579;-64
2021/11/26 08:29:36;;;;;;;;;9.00;9.00;;;;;8.90;59.75;100062.09;5020222;28;45383;-65
2021/11/26 08:32:01;;;;;;;;;9.25;8.00;;;;;8.92;59.79;100062.03;5017889;28;46657;-67
2021/11/26 08:34:27;;;;;;;;;11.25;9.00;;;;;8.98;59.46;100072.47;5018540;28;46479;-65
2021/11/26 08:36:52;;;;;;;;;9.50;8.75;;;;;8.99;59.32;100061.78;5018865;28;45362;-65
2021/11/26 08:39:18;;;;;;;;;8.75;8.75;;;;;8.95;59.67;100054.81;5016908;28;45845;-65
2021/11/26 08:41:43;;;;;;;;;9.25;9.00;;;;;8.92;59.59;100043.41;5018893;28;45511;-65
2021/11/26 08:44:09;;;;;;;;;4.00;3.50;;;;;9.02;59.58;100058.09;5019025;28;45567;-65
2021/11/26 08:46:35;;;;;;;;;8.25;7.25;;;;;9.01;59.20;100037.75;5026157;28;45613;-65
2021/11/26 08:49:00;;;;;;;;;9.00;9.00;;;;;9.05;59.63;100042.91;5018531;28;45153;-65
2021/11/26 08:51:29;;;;;;;;;14.25;9.00;;;;;9.05;59.60;100034.94;5018538;28;45434;-65
2021/11/26 08:53:54;;;;;;;;;7.25;7.00;;;;;9.07;59.51;100034.84;5018050;28;47243;-65
2021/11/26 08:56:21;;;;;;;;;10.00;9.00;;;;;9.07;59.15;100037.50;5018429;28;45536;-65
2021/11/26 08:58:47;;;;;;;;;9.00;8.50;;;;;9.13;59.28;100042.63;5018685;28;45431;-65
2021/11/26 09:01:14;;;;;;;;;8.75;8.75;;;;;9.10;59.25;100037.41;5018980;28;45334;-65
2021/11/26 09:03:40;;;;;;;;;9.50;8.50;;;;;9.08;59.33;100036.59;5018629;28;46926;-65
2021/11/26 09:06:05;;;;;;;;;10.25;7.25;;;;;8.97;59.71;100020.16;5018046;28;45746;-64
2021/11/26 09:08:31;;;;;;;;;9.50;9.50;;;;;9.05;59.18;100026.06;5018215;28;45316;-63
2021/11/26 09:10:56;;;;;;;;;8.75;7.50;;;;;9.09;59.41;100025.88;5018946;28;45988;-65
2021/11/26 09:13:22;;;;;;;;;7.50;6.00;;;;;9.14;58.99;100019.50;5017236;28;46400;-65
2021/11/26 09:15:47;;;;;;;;;8.00;7.00;;;;;9.15;58.92;100010.59;5018331;28;45750;-65
2021/11/26 09:18:16;;;;;;;;;11.50;8.00;;;;;9.22;59.00;100015.66;5017172;28;45541;-65
2021/11/26 09:20:43;;;;;;;;;6.25;4.00;;;;;9.26;59.28;100003.06;5017554;28;45471;-65
2021/11/26 09:23:11;;;;;;;;;7.50;6.75;;;;;9.30;59.09;99998.50;5018463;28;46180;-67
2021/11/26 09:25:37;;;;;;;;;10.00;8.50;;;;;9.30;59.02;99987.84;5018149;28;45601;-66
2021/11/26 09:28:03;;;;;;;;;9.50;7.25;;;;;9.30;59.04;99979.84;5018640;28;45614;-64
2021/11/26 09:30:31;;;;;;;;;6.75;6.75;;;;;9.22;58.39;99970.38;5017232;28;46146;-66
2021/11/26 09:32:57;;;;;;;;;7.00;7.00;;;;;9.21;59.01;99975.75;5018572;28;45506;-66
2021/11/26 09:35:25;;;;;;;;;7.25;7.25;;;;;9.22;58.97;99964.16;5018487;28;45427;-64
2021/11/26 09:37:51;;;;;;;;;7.75;7.50;;;;;9.24;59.01;99957.00;5034059;28;45344;-64
2021/11/26 09:40:18;;;;;;;;;8.25;8.25;;;;;9.25;58.82;99967.59;5033934;28;46485;-64
2021/11/26 09:42:49;;;;;;;;;8.00;7.00;;;;;9.30;58.57;99961.22;5018267;28;45468;-64
2021/11/26 09:45:20;;;;;;;;;5.00;5.00;;;;;9.30;58.66;99951.41;5004789;28;45627;-65
2021/11/26 09:47:46;;;;;;;;;7.50;7.25;;;;;9.27;58.74;99936.44;5016812;28;45362;-65
2021/11/26 09:50:11;;;;;;;;;4.50;3.50;;;;;9.29;58.51;99931.06;5016643;28;45599;-65
2021/11/26 09:52:41;;;;;;;;;10.00;6.75;;;;;9.29;58.58;99931.06;5017756;28;45504;-65
2021/11/26 09:55:08;;;;;;;;;6.00;5.50;;;;;9.28;58.85;99921.31;5017454;28;45823;-65
2021/11/26 09:57:35;;;;;;;;;8.75;7.25;;;;;9.30;58.54;99922.13;5017794;28;45414;-65
2021/11/26 10:00:00;;;;;;;;;7.00;4.25;;;;;9.34;58.42;99901.56;5018410;28;45505;-65
2021/11/26 10:02:26;;;;;;;;;7.00;4.00;;;;;9.37;58.16;99896.09;5018085;28;45456;-64
2021/11/26 10:05:06;;;;;;;;;4.25;4.25;;;;;9.33;58.15;99892.69;5017636;28;45505;-65
2021/11/26 10:07:42;;;;;;;;;5.50;5.50;;;;;9.37;58.37;99891.66;5014630;28;45357;-65
2021/11/26 10:10:09;;;;;;;;;4.00;4.00;;;;;9.39;58.21;99887.13;5018230;28;45402;-65
2021/11/26 10:12:35;;;;;;;;;4.00;4.00;;;;;9.37;58.10;99877.47;5017687;28;45479;-65
2021/11/26 10:15:00;;;;;;;;;5.75;5.50;;;;;9.35;57.77;99882.00;5017512;28;45403;-65
2021/11/26 10:17:26;;;;;;;;;8.50;6.00;;;;;9.28;57.94;99879.56;5017702;28;45659;-64
2021/11/26 10:19:53;;;;;;;;;6.50;5.00;;;;;9.25;58.03;99866.41;5018151;28;45655;-64
2021/11/26 10:22:22;;;;;;;;;7.75;7.00;;;;;9.33;57.67;99859.88;5036479;28;47192;-65
2021/11/26 10:25:21;;;;;;;;;7.75;5.50;;;;;9.32;57.72;99844.81;5020891;28;45700;-65
2021/11/26 10:27:51;;;;;;;;;9.75;6.25;;;;;9.30;57.60;99828.06;5021110;28;45591;-64
2021/11/26 10:30:26;;;;;;;;;4.00;4.00;;;;;9.27;57.81;99819.25;5021347;28;45475;-65
2021/11/26 10:33:05;;;;;;;;;5.25;4.25;;;;;9.31;57.50;99814.66;5021252;28;46245;-65
2021/11/26 10:35:34;;;;;;;;;6.75;4.75;;;;;9.29;57.55;99800.56;5020471;28;45798;-66
2021/11/26 10:38:02;;;;;;;;;4.75;3.00;;;;;9.34;57.45;99789.69;5020618;28;45402;-65
2021/11/26 10:40:32;;;;;;;;;3.50;3.00;;;;;9.36;57.82;99795.84;5021041;28;45285;-65
2021/11/26 10:42:58;;;;;;;;;9.00;3.00;;;;;9.32;57.09;99783.56;5020959;28;45484;-65
2021/11/26 10:51:04;;;;;;;;;4.25;3.75;;;;;9.30;56.77;99772.97;5020580;28;45495;-65
2021/11/26 10:59:01;;;;;;;;;3.50;2.00;;;;;9.37;56.94;99774.47;5020485;28;45399;-65
2021/11/26 11:01:26;;;;;;;;;3.00;3.00;;;;;9.37;57.18;99750.50;5020805;28;45415;-65
2021/11/26 11:03:53;;;;;;;;;3.75;2.75;;;;;9.38;57.08;99746.03;5020749;28;46537;-65
2021/11/26 11:06:19;;;;;;;;;2.75;2.75;;;;;9.40;57.22;99746.81;5019709;28;45646;-65
2021/11/26 11:08:44;;;;;;;;;2.50;2.50;;;;;9.45;56.55;99731.50;5020896;28;45513;-65
2021/11/26 11:11:09;;;;;;;;;4.00;2.25;;;;;9.46;57.17;99727.91;5020462;28;45609;-65
2021/11/26 11:13:35;;;;;;;;;3.00;3.00;;;;;9.45;56.61;99715.53;5014524;28;48154;-65
2021/11/26 11:16:10;;;;;;;;;2.75;2.00;;;;;9.49;56.85;99705.59;5013868;28;45397;-65
2021/11/26 11:18:38;;;;;;;;;3.25;2.50;;;;;9.52;56.68;99695.69;5019278;28;45482;-66
2021/11/26 11:21:05;;;;;;;;;4.00;3.75;;;;;9.53;56.82;99684.06;5020528;28;45240;-64
2021/11/26 11:23:31;;;;;;;;;3.00;2.75;;;;;9.48;56.97;99671.91;5020508;28;45243;-66
2021/11/26 11:25:58;;;;;;;;;3.75;3.00;;;;;9.53;56.73;99664.56;5018917;28;45405;-66
2021/11/26 11:28:24;;;;;;;;;6.25;3.75;;;;;9.54;56.65;99648.53;5020601;28;45723;-66
2021/11/26 11:30:50;;;;;;;;;3.00;3.00;;;;;9.46;56.93;99632.03;5019836;28;45522;-65
2021/11/26 11:33:17;;;;;;;;;3.50;3.50;;;;;9.50;56.47;99635.41;5020412;28;46022;-65
2021/11/26 11:35:46;;;;;;;;;8.00;3.75;;;;;9.53;56.66;99621.94;5019287;28;45393;-65
2021/11/26 11:38:14;;;;;;;;;4.00;3.00;;;;;9.53;56.86;99617.47;5020133;28;45535;-66
2021/11/26 11:40:43;;;;;;;;;2.75;2.75;;;;;9.52;56.91;99612.22;5019673;28;45512;-66